Slick, Oklahoma
Current Conditions -  °F | °C
As of 7:15 PM on Tuesday 21 Oct 2014 (Local Time) from KOKM Reporting Station
Clear Clear  
Wind Chill: 69°   Ceiling: Unl
Heat Index: 69°   Visibility: 10mi
Dew Point: 63°   Wind: 6mph
Humidity: 79%   Direction: 140°SE
Pressure: 30.03"   Gusts: NA
Location:  35.78°N, 96.27°W
Report Text: KOKM 220015Z AUTO 14005KT 10SM CLR 21/17 A3003 RMK AO2 T02070170
Loading
Personal Weather Stations






























Interactive Weather Map
Tropical Storm Tracking
New forecast layout! Learn more

10-Day Weather Forecast

Advertisements
Track Severe Weather on mobile